Flight Track Log - Related Links

Times and Time Zones

All times are in EDT time to prevent confusion due to time zone crossing. See the ASQ5153 flight status page for this flight to view local times or setup timezone preferences in your user account.

Time Position Orientation Groundspeed Altitude Reporting Facility
EDT Latitude Longitude Course Direction KTS MPH feet Rate Location/Type
Tue 04:39:01 PM 33.6333 -84.3667 168° South 191 220 2,600  Level Atlanta TRACON
Tue 04:40:01 PM 33.6000 -84.3000 121° Southeast 250 288 5,000 2,550 Climbing Atlanta TRACON
Tue 04:41:00 PM 33.4522 -84.2667 180° South  Level FlightAware Approximate
Tue 04:41:01 PM 33.5333 -84.2833 168° South 273 314 7,700  Level Atlanta TRACON
Tue 04:42:00 PM 33.3588 -84.2605 168° South  Level FlightAware Approximate
Tue 04:42:41 PM 33.4036 -84.2778 178° South 297 342 10,800  Level Atlanta Center
Tue 04:43:00 PM 33.2668 -84.2374 168° South  Level FlightAware Approximate
Tue 04:43:41 PM 33.3203 -84.2625 171° South 322 371 11,900  Level Atlanta Center
Tue 04:44:00 PM 33.1748 -84.2144 168° South  Level FlightAware Approximate
Tue 04:44:41 PM 33.2222 -84.2350 167° South 358 412 13,400  Level Atlanta Center
Tue 04:45:41 PM 33.1178 -84.2050 166° South 380 437 14,900 1,550 Climbing Atlanta Center
Tue 04:46:41 PM 33.0031 -84.1775 169° South 380 437 16,500 1,450 Climbing Atlanta Center
Tue 04:47:41 PM 32.9050 -84.1353 160° South 380 437 17,800 1,300 Climbing Atlanta Center
Tue 04:48:41 PM 32.8028 -84.0958 162° South 380 437 19,100 1,200 Climbing Atlanta Center
Tue 04:49:41 PM 32.6964 -84.0536 162° South 393 452 20,200 1,100 Climbing Atlanta Center
Tue 04:50:41 PM 32.5897 -84.0092 161° South 398 458 21,300 1,050 Climbing Atlanta Center
Tue 04:51:41 PM 32.4814 -83.9650 161° South 405 466 22,300 950 Climbing Atlanta Center
Tue 04:52:41 PM 32.3706 -83.9183 160° South 411 473 23,200 900 Climbing Atlanta Center
Tue 04:53:41 PM 32.2578 -83.8719 161° South 417 480 24,100 800 Climbing Atlanta Center
Tue 04:54:41 PM 32.1450 -83.8256 161° South 422 486 24,800 696 Climbing Atlanta Center
Tue 04:55:33 PM 32.0589 -83.7897 161° South 421 484 25,400 696 Climbing Jacksonville Center
Tue 04:56:33 PM 31.9444 -83.7444 161° South 421 484 26,100 550 Climbing Jacksonville Center
Tue 04:57:33 PM 31.8319 -83.6922 158° South 431 496 26,500 450 Climbing Jacksonville Center
Tue 04:58:33 PM 31.7153 -83.6497 163° South 436 502 27,000 250 Climbing Jacksonville Center
Tue 04:59:33 PM 31.5778 -83.5975 162° South 450 518 27,000  Level Jacksonville Center
Tue 05:00:33 PM 31.4572 -83.5381 157° South 463 533 27,000 -300 Level Jacksonville Center
Tue 05:01:33 PM 31.3428 -83.4544 148° Southeast 468 539 26,400 -550 Descending Jacksonville Center
Tue 05:02:33 PM 31.2239 -83.3686 148° Southeast 488 562 25,900 -450 Descending Jacksonville Center
Tue 05:03:33 PM 31.1053 -83.2856 149° Southeast 493 567 25,500 -450 Descending Jacksonville Center
Tue 05:04:33 PM 30.9844 -83.1931 147° Southeast 499 574 25,000 -500 Descending Jacksonville Center
Tue 05:05:33 PM 30.8656 -83.1103 149° Southeast 504 580 24,500 -500 Descending Jacksonville Center
Tue 05:06:33 PM 30.7614 -83.0303 147° Southeast 504 580 24,000 -250 Descending Jacksonville Center
Tue 05:07:33 PM 30.6403 -82.9481 150° Southeast 498 573 24,000  Level Jacksonville Center
Tue 05:08:33 PM 30.5256 -82.8636 148° Southeast 498 573 24,000 -250 Level Jacksonville Center
Tue 05:09:33 PM 30.4106 -82.7794 148° Southeast 493 567 23,500 -1,300 Descending Jacksonville Center
Tue 05:10:33 PM 30.2956 -82.6978 148° Southeast 493 567 21,400 -2,700 Descending Jacksonville Center
Tue 05:11:33 PM 30.1869 -82.6258 150° Southeast 479 551 18,100 -3,471 Descending Jacksonville Center
Tue 05:12:15 PM 30.1011 -82.5683 150° Southeast 424 488 15,500 -3,582 Descending Jacksonville Center
Tue 05:12:40 PM 30.0636 -82.5397 147° Southeast 407 468 14,100 -2,769 Descending Jacksonville Center
Tue 05:13:33 PM 29.9967 -82.4897 147° Southeast 411 473 11,900 -2,336 Descending Jacksonville Center
Tue 05:14:33 PM 29.9233 -82.4372 148° Southeast 361 415 9,700 -2,880 Descending Jacksonville Center
Tue 05:14:48 PM 29.8939 -82.4206 154° Southeast 294 338 8,300 -3,100 Descending Jacksonville Center
Tue 05:15:33 PM 29.8481 -82.4089 168° South 320 368 6,600 -2,066 Descending Jacksonville Center
Tue 05:15:49 PM 29.8147 -82.4089 180° South 270 311 6,200 -1,000 Descending Jacksonville Center
Tue 05:16:33 PM 29.7811 -82.4019 170° South 273 314 5,600 -818 Descending Jacksonville Center

Login

Don't have an account? Register now (free) for customized features, flight alerts, and more!